sensor_id;sensor_type;location;lat;lon;timestamp;pressure;altitude;pressure_sealevel;temperature;humidity
8705;BME280;4389;41.932;25.904;2022-12-24T00:02:24;100495.38;;;2.57;100.00
8705;BME280;4389;41.932;25.904;2022-12-24T00:04:50;100498.97;;;2.70;100.00
8705;BME280;4389;41.932;25.904;2022-12-24T00:07:17;100499.81;;;2.86;100.00
8705;BME280;4389;41.932;25.904;2022-12-24T00:09:44;100497.81;;;2.75;100.00
8705;BME280;4389;41.932;25.904;2022-12-24T00:12:12;100500.88;;;2.52;100.00
8705;BME280;4389;41.932;25.904;2022-12-24T00:14:39;100505.50;;;2.47;100.00
8705;BME280;4389;41.932;25.904;2022-12-24T00:17:06;100504.06;;;2.26;100.00
8705;BME280;4389;41.932;25.904;2022-12-24T00:19:33;100505.38;;;2.02;100.00
8705;BME280;4389;41.932;25.904;2022-12-24T00:22:00;100514.94;;;1.86;100.00
8705;BME280;4389;41.932;25.904;2022-12-24T00:24:26;100516.09;;;1.81;100.00
8705;BME280;4389;41.932;25.904;2022-12-24T00:26:53;100516.19;;;1.79;100.00
8705;BME280;4389;41.932;25.904;2022-12-24T00:29:22;100509.59;;;1.72;100.00
8705;BME280;4389;41.932;25.904;2022-12-24T00:31:49;100514.75;;;1.74;100.00
8705;BME280;4389;41.932;25.904;2022-12-24T00:34:15;100518.97;;;1.76;100.00
8705;BME280;4389;41.932;25.904;2022-12-24T00:36:42;100518.47;;;1.85;100.00
8705;BME280;4389;41.932;25.904;2022-12-24T00:39:09;100515.09;;;1.83;100.00
8705;BME280;4389;41.932;25.904;2022-12-24T00:41:36;100512.19;;;1.89;100.00
8705;BME280;4389;41.932;25.904;2022-12-24T00:44:04;100507.81;;;2.05;100.00
8705;BME280;4389;41.932;25.904;2022-12-24T00:46:37;100514.72;;;2.06;100.00
8705;BME280;4389;41.932;25.904;2022-12-24T00:49:05;100513.69;;;1.93;100.00
8705;BME280;4389;41.932;25.904;2022-12-24T00:51:33;100510.56;;;1.87;100.00
8705;BME280;4389;41.932;25.904;2022-12-24T00:54:01;100505.22;;;2.05;100.00
8705;BME280;4389;41.932;25.904;2022-12-24T00:56:28;100502.38;;;2.25;100.00
8705;BME280;4389;41.932;25.904;2022-12-24T00:58:55;100503.97;;;2.43;100.00
8705;BME280;4389;41.932;25.904;2022-12-24T01:01:22;100497.06;;;2.42;100.00
8705;BME280;4389;41.932;25.904;2022-12-24T01:03:51;100502.06;;;2.31;100.00
8705;BME280;4389;41.932;25.904;2022-12-24T01:06:38;100494.53;;;2.41;100.00
8705;BME280;4389;41.932;25.904;2022-12-24T01:09:04;100492.97;;;2.38;100.00
8705;BME280;4389;41.932;25.904;2022-12-24T01:11:31;100500.78;;;2.38;100.00
8705;BME280;4389;41.932;25.904;2022-12-24T01:13:58;100490.00;;;2.29;100.00
8705;BME280;4389;41.932;25.904;2022-12-24T01:16:25;100490.94;;;2.28;100.00
8705;BME280;4389;41.932;25.904;2022-12-24T01:18:53;100487.75;;;2.38;100.00
8705;BME280;4389;41.932;25.904;2022-12-24T01:21:20;100478.56;;;2.31;100.00
8705;BME280;4389;41.932;25.904;2022-12-24T01:23:47;100470.56;;;2.34;100.00
8705;BME280;4389;41.932;25.904;2022-12-24T01:26:14;100475.16;;;2.29;100.00
8705;BME280;4389;41.932;25.904;2022-12-24T01:28:41;100483.94;;;2.28;100.00
8705;BME280;4389;41.932;25.904;2022-12-24T01:31:12;100480.72;;;2.23;100.00
8705;BME280;4389;41.932;25.904;2022-12-24T01:33:40;100476.09;;;2.28;100.00
8705;BME280;4389;41.932;25.904;2022-12-24T01:36:10;100480.31;;;2.31;100.00
8705;BME280;4389;41.932;25.904;2022-12-24T01:38:37;100477.63;;;2.32;100.00
8705;BME280;4389;41.932;25.904;2022-12-24T01:41:04;100480.13;;;2.34;100.00
8705;BME280;4389;41.932;25.904;2022-12-24T01:43:49;100485.53;;;2.31;100.00
8705;BME280;4389;41.932;25.904;2022-12-24T01:46:18;100476.09;;;2.28;100.00
8705;BME280;4389;41.932;25.904;2022-12-24T01:48:48;100475.09;;;2.15;100.00
8705;BME280;4389;41.932;25.904;2022-12-24T01:51:32;100481.13;;;2.00;100.00
8705;BME280;4389;41.932;25.904;2022-12-24T01:54:02;100474.06;;;2.02;100.00
8705;BME280;4389;41.932;25.904;2022-12-24T01:56:31;100469.44;;;2.07;100.00
8705;BME280;4389;41.932;25.904;2022-12-24T01:59:02;100477.28;;;2.07;100.00
8705;BME280;4389;41.932;25.904;2022-12-24T02:01:30;100475.94;;;2.16;100.00
8705;BME280;4389;41.932;25.904;2022-12-24T02:03:58;100468.03;;;2.17;100.00
8705;BME280;4389;41.932;25.904;2022-12-24T02:06:26;100469.13;;;2.13;100.00
8705;BME280;4389;41.932;25.904;2022-12-24T02:08:54;100461.97;;;2.17;100.00
8705;BME280;4389;41.932;25.904;2022-12-24T02:11:21;100469.19;;;1.96;100.00
8705;BME280;4389;41.932;25.904;2022-12-24T02:13:49;100468.69;;;2.05;100.00
8705;BME280;4389;41.932;25.904;2022-12-24T02:16:27;100469.53;;;2.06;100.00
8705;BME280;4389;41.932;25.904;2022-12-24T02:19:01;100463.16;;;2.11;100.00
8705;BME280;4389;41.932;25.904;2022-12-24T02:21:47;100472.56;;;1.98;100.00
8705;BME280;4389;41.932;25.904;2022-12-24T02:25:00;100473.72;;;2.08;100.00
8705;BME280;4389;41.932;25.904;2022-12-24T02:27:43;100470.03;;;1.97;100.00
8705;BME280;4389;41.932;25.904;2022-12-24T02:30:17;100472.53;;;1.83;100.00
8705;BME280;4389;41.932;25.904;2022-12-24T02:33:00;100466.94;;;1.73;100.00
8705;BME280;4389;41.932;25.904;2022-12-24T02:35:37;100472.28;;;1.72;100.00
8705;BME280;4389;41.932;25.904;2022-12-24T02:38:07;100471.16;;;1.60;100.00
8705;BME280;4389;41.932;25.904;2022-12-24T02:40:40;100470.72;;;1.68;100.00
8705;BME280;4389;41.932;25.904;2022-12-24T02:43:10;100473.28;;;1.69;100.00
8705;BME280;4389;41.932;25.904;2022-12-24T02:45:41;100464.09;;;1.62;100.00
8705;BME280;4389;41.932;25.904;2022-12-24T02:48:11;100477.06;;;1.64;100.00
8705;BME280;4389;41.932;25.904;2022-12-24T02:50:57;100475.88;;;1.69;100.00
8705;BME280;4389;41.932;25.904;2022-12-24T02:53:24;100478.72;;;1.65;100.00
8705;BME280;4389;41.932;25.904;2022-12-24T02:56:06;100486.13;;;1.72;100.00
8705;BME280;4389;41.932;25.904;2022-12-24T02:58:43;100488.50;;;1.77;100.00
8705;BME280;4389;41.932;25.904;2022-12-24T03:01:25;100484.44;;;1.71;100.00
8705;BME280;4389;41.932;25.904;2022-12-24T03:04:05;100484.78;;;1.65;100.00
8705;BME280;4389;41.932;25.904;2022-12-24T03:06:40;100487.34;;;1.82;100.00
8705;BME280;4389;41.932;25.904;2022-12-24T03:09:15;100491.03;;;1.78;100.00
8705;BME280;4389;41.932;25.904;2022-12-24T03:11:49;100488.72;;;1.89;100.00
8705;BME280;4389;41.932;25.904;2022-12-24T03:14:19;100492.72;;;1.79;100.00
8705;BME280;4389;41.932;25.904;2022-12-24T03:16:48;100500.13;;;1.87;100.00
8705;BME280;4389;41.932;25.904;2022-12-24T03:19:16;100500.81;;;1.90;100.00
8705;BME280;4389;41.932;25.904;2022-12-24T03:21:44;100509.75;;;2.02;100.00
8705;BME280;4389;41.932;25.904;2022-12-24T03:24:13;100509.22;;;1.95;100.00
8705;BME280;4389;41.932;25.904;2022-12-24T03:26:40;100500.00;;;2.05;100.00
8705;BME280;4389;41.932;25.904;2022-12-24T03:29:08;100504.47;;;2.03;100.00
8705;BME280;4389;41.932;25.904;2022-12-24T03:31:46;100509.19;;;2.12;100.00
8705;BME280;4389;41.932;25.904;2022-12-24T03:34:15;100509.84;;;2.16;100.00
8705;BME280;4389;41.932;25.904;2022-12-24T03:36:42;100502.94;;;1.99;100.00
8705;BME280;4389;41.932;25.904;2022-12-24T03:39:09;100512.78;;;2.10;100.00
8705;BME280;4389;41.932;25.904;2022-12-24T03:41:36;100507.91;;;2.04;100.00
8705;BME280;4389;41.932;25.904;2022-12-24T03:44:04;100501.19;;;2.15;100.00
8705;BME280;4389;41.932;25.904;2022-12-24T03:46:31;100502.09;;;2.14;100.00
8705;BME280;4389;41.932;25.904;2022-12-24T03:48:57;100505.91;;;2.09;100.00
8705;BME280;4389;41.932;25.904;2022-12-24T03:51:26;100507.53;;;1.94;100.00
8705;BME280;4389;41.932;25.904;2022-12-24T03:53:54;100502.19;;;1.97;100.00
8705;BME280;4389;41.932;25.904;2022-12-24T03:56:22;100497.78;;;1.82;100.00
8705;BME280;4389;41.932;25.904;2022-12-24T03:58:49;100491.75;;;1.97;100.00
8705;BME280;4389;41.932;25.904;2022-12-24T04:01:17;100502.00;;;2.00;100.00
8705;BME280;4389;41.932;25.904;2022-12-24T04:03:44;100491.88;;;1.94;100.00
8705;BME280;4389;41.932;25.904;2022-12-24T04:06:12;100495.53;;;1.92;100.00
8705;BME280;4389;41.932;25.904;2022-12-24T04:08:41;100500.06;;;1.88;100.00
8705;BME280;4389;41.932;25.904;2022-12-24T04:11:10;100502.81;;;1.85;100.00
8705;BME280;4389;41.932;25.904;2022-12-24T04:13:37;100509.56;;;1.89;100.00
8705;BME280;4389;41.932;25.904;2022-12-24T04:16:06;100505.44;;;1.85;100.00
8705;BME280;4389;41.932;25.904;2022-12-24T04:18:34;100517.97;;;1.94;100.00
8705;BME280;4389;41.932;25.904;2022-12-24T04:21:01;100504.19;;;1.92;100.00
8705;BME280;4389;41.932;25.904;2022-12-24T04:23:29;100500.97;;;1.87;100.00
8705;BME280;4389;41.932;25.904;2022-12-24T04:25:59;100502.00;;;1.85;100.00
8705;BME280;4389;41.932;25.904;2022-12-24T04:28:27;100504.88;;;1.96;100.00
8705;BME280;4389;41.932;25.904;2022-12-24T04:30:57;100507.72;;;1.91;100.00
8705;BME280;4389;41.932;25.904;2022-12-24T04:33:24;100503.13;;;1.79;100.00
8705;BME280;4389;41.932;25.904;2022-12-24T04:35:51;100499.59;;;1.80;100.00
8705;BME280;4389;41.932;25.904;2022-12-24T04:38:18;100506.19;;;1.87;100.00
8705;BME280;4389;41.932;25.904;2022-12-24T04:40:45;100501.81;;;1.88;100.00
8705;BME280;4389;41.932;25.904;2022-12-24T04:43:13;100500.78;;;1.75;100.00
8705;BME280;4389;41.932;25.904;2022-12-24T04:45:40;100509.13;;;1.81;100.00
8705;BME280;4389;41.932;25.904;2022-12-24T04:48:07;100508.66;;;1.90;100.00
8705;BME280;4389;41.932;25.904;2022-12-24T04:50:34;100493.75;;;1.92;100.00
8705;BME280;4389;41.932;25.904;2022-12-24T04:53:00;100505.88;;;1.93;100.00
8705;BME280;4389;41.932;25.904;2022-12-24T04:55:27;100504.88;;;1.96;100.00
8705;BME280;4389;41.932;25.904;2022-12-24T04:57:54;100493.75;;;1.92;100.00
8705;BME280;4389;41.932;25.904;2022-12-24T05:00:22;100502.50;;;1.91;100.00
8705;BME280;4389;41.932;25.904;2022-12-24T05:02:49;100502.19;;;1.97;100.00
8705;BME280;4389;41.932;25.904;2022-12-24T05:05:16;100495.28;;;1.96;100.00
8705;BME280;4389;41.932;25.904;2022-12-24T05:07:43;100500.31;;;1.99;100.00
8705;BME280;4389;41.932;25.904;2022-12-24T05:10:10;100500.81;;;1.90;100.00
8705;BME280;4389;41.932;25.904;2022-12-24T05:12:37;100493.94;;;1.89;100.00
8705;BME280;4389;41.932;25.904;2022-12-24T05:15:05;100493.50;;;1.97;100.00
8705;BME280;4389;41.932;25.904;2022-12-24T05:17:33;100498.72;;;1.81;100.00
8705;BME280;4389;41.932;25.904;2022-12-24T05:20:00;100500.53;;;1.79;100.00
8705;BME280;4389;41.932;25.904;2022-12-24T05:22:27;100507.44;;;1.80;100.00
8705;BME280;4389;41.932;25.904;2022-12-24T05:25:11;100515.72;;;1.88;100.00
8705;BME280;4389;41.932;25.904;2022-12-24T05:27:55;100520.16;;;1.86;100.00
8705;BME280;4389;41.932;25.904;2022-12-24T05:30:22;100516.28;;;1.93;100.00
8705;BME280;4389;41.932;25.904;2022-12-24T05:32:50;100520.31;;;1.83;100.00
8705;BME280;4389;41.932;25.904;2022-12-24T05:35:17;100516.72;;;1.86;100.00
8705;BME280;4389;41.932;25.904;2022-12-24T05:37:44;100514.56;;;1.77;100.00
8705;BME280;4389;41.932;25.904;2022-12-24T05:40:11;100511.41;;;1.87;100.00
8705;BME280;4389;41.932;25.904;2022-12-24T05:42:38;100502.56;;;1.90;100.00
8705;BME280;4389;41.932;25.904;2022-12-24T05:45:06;100511.25;;;1.90;100.00
8705;BME280;4389;41.932;25.904;2022-12-24T05:47:33;100512.81;;;1.77;100.00
8705;BME280;4389;41.932;25.904;2022-12-24T05:50:01;100516.78;;;1.84;100.00
8705;BME280;4389;41.932;25.904;2022-12-24T05:52:28;100517.06;;;1.63;100.00
8705;BME280;4389;41.932;25.904;2022-12-24T05:54:55;100511.84;;;1.63;100.00
8705;BME280;4389;41.932;25.904;2022-12-24T05:57:22;100508.97;;;1.52;100.00
8705;BME280;4389;41.932;25.904;2022-12-24T05:59:48;100522.19;;;1.64;100.00
8705;BME280;4389;41.932;25.904;2022-12-24T06:02:15;100522.19;;;1.81;100.00
8705;BME280;4389;41.932;25.904;2022-12-24T06:04:42;100516.28;;;1.78;100.00
8705;BME280;4389;41.932;25.904;2022-12-24T06:07:11;100521.69;;;1.90;100.00
8705;BME280;4389;41.932;25.904;2022-12-24T06:09:37;100526.41;;;1.99;100.00
8705;BME280;4389;41.932;25.904;2022-12-24T06:12:05;100522.25;;;1.95;100.00
8705;BME280;4389;41.932;25.904;2022-12-24T06:14:32;100526.91;;;1.90;100.00
8705;BME280;4389;41.932;25.904;2022-12-24T06:16:58;100529.63;;;2.04;100.00
8705;BME280;4389;41.932;25.904;2022-12-24T06:19:25;100533.78;;;1.91;100.00
8705;BME280;4389;41.932;25.904;2022-12-24T06:21:52;100530.56;;;2.03;100.00
8705;BME280;4389;41.932;25.904;2022-12-24T06:24:20;100532.25;;;1.87;100.00
8705;BME280;4389;41.932;25.904;2022-12-24T06:26:47;100540.53;;;1.95;100.00
8705;BME280;4389;41.932;25.904;2022-12-24T06:29:14;100545.59;;;1.98;100.00
8705;BME280;4389;41.932;25.904;2022-12-24T06:31:41;100550.31;;;2.07;100.00
8705;BME280;4389;41.932;25.904;2022-12-24T06:34:08;100553.34;;;2.15;100.00
8705;BME280;4389;41.932;25.904;2022-12-24T06:36:35;100550.59;;;2.18;100.00
8705;BME280;4389;41.932;25.904;2022-12-24T06:39:02;100551.19;;;2.23;100.00
8705;BME280;4389;41.932;25.904;2022-12-24T06:41:30;100557.59;;;2.33;100.00
8705;BME280;4389;41.932;25.904;2022-12-24T06:43:57;100564.50;;;2.34;100.00
8705;BME280;4389;41.932;25.904;2022-12-24T06:46:24;100565.88;;;2.41;100.00
8705;BME280;4389;41.932;25.904;2022-12-24T06:48:51;100558.78;;;2.28;100.00
8705;BME280;4389;41.932;25.904;2022-12-24T06:51:19;100563.13;;;2.12;100.00
8705;BME280;4389;41.932;25.904;2022-12-24T06:53:46;100569.00;;;2.00;100.00
8705;BME280;4389;41.932;25.904;2022-12-24T06:56:15;100559.72;;;1.94;100.00
8705;BME280;4389;41.932;25.904;2022-12-24T06:58:43;100564.47;;;2.03;100.00
8705;BME280;4389;41.932;25.904;2022-12-24T07:01:11;100573.97;;;2.04;100.00
8705;BME280;4389;41.932;25.904;2022-12-24T07:03:39;100569.19;;;2.12;100.00
8705;BME280;4389;41.932;25.904;2022-12-24T07:06:07;100569.91;;;2.31;100.00
8705;BME280;4389;41.932;25.904;2022-12-24T07:08:36;100551.88;;;2.42;100.00
8705;BME280;4389;41.932;25.904;2022-12-24T07:11:03;100558.88;;;2.42;100.00
8705;BME280;4389;41.932;25.904;2022-12-24T07:13:30;100568.50;;;2.57;100.00
8705;BME280;4389;41.932;25.904;2022-12-24T07:16:01;100570.16;;;2.42;100.00
8705;BME280;4389;41.932;25.904;2022-12-24T07:18:28;100567.22;;;2.48;100.00
8705;BME280;4389;41.932;25.904;2022-12-24T07:20:55;100567.03;;;2.51;100.00
8705;BME280;4389;41.932;25.904;2022-12-24T07:23:22;100563.69;;;2.65;100.00
8705;BME280;4389;41.932;25.904;2022-12-24T07:25:49;100559.56;;;2.76;100.00
8705;BME280;4389;41.932;25.904;2022-12-24T07:28:16;100566.03;;;2.85;100.00
8705;BME280;4389;41.932;25.904;2022-12-24T07:30:42;100559.56;;;2.76;100.00
8705;BME280;4389;41.932;25.904;2022-12-24T07:33:11;100567.38;;;2.61;100.00
8705;BME280;4389;41.932;25.904;2022-12-24T07:35:37;100560.81;;;2.69;100.00
8705;BME280;4389;41.932;25.904;2022-12-24T07:38:04;100565.84;;;2.88;100.00
8705;BME280;4389;41.932;25.904;2022-12-24T07:40:32;100559.97;;;2.69;100.00
8705;BME280;4389;41.932;25.904;2022-12-24T07:42:59;100563.69;;;2.49;100.00
8705;BME280;4389;41.932;25.904;2022-12-24T07:45:26;100561.66;;;2.54;100.00
8705;BME280;4389;41.932;25.904;2022-12-24T07:47:53;100553.72;;;2.87;100.00
8705;BME280;4389;41.932;25.904;2022-12-24T07:50:21;100560.63;;;2.88;100.00
8705;BME280;4389;41.932;25.904;2022-12-24T07:52:48;100563.50;;;2.83;100.00
8705;BME280;4389;41.932;25.904;2022-12-24T07:55:15;100556.69;;;2.96;100.00
8705;BME280;4389;41.932;25.904;2022-12-24T07:57:42;100552.72;;;2.89;100.00
8705;BME280;4389;41.932;25.904;2022-12-24T08:00:09;100561.31;;;2.91;100.00
8705;BME280;4389;41.932;25.904;2022-12-24T08:02:36;100561.56;;;3.02;100.00
8705;BME280;4389;41.932;25.904;2022-12-24T08:05:04;100565.41;;;3.11;100.00
8705;BME280;4389;41.932;25.904;2022-12-24T08:07:32;100563.44;;;3.30;100.00
8705;BME280;4389;41.932;25.904;2022-12-24T08:09:59;100564.63;;;3.24;100.00
8705;BME280;4389;41.932;25.904;2022-12-24T08:12:26;100557.22;;;3.17;100.00
8705;BME280;4389;41.932;25.904;2022-12-24T08:14:53;100556.53;;;3.13;100.00
8705;BME280;4389;41.932;25.904;2022-12-24T08:17:20;100557.19;;;3.32;100.00
8705;BME280;4389;41.932;25.904;2022-12-24T08:19:46;100553.44;;;3.36;100.00
8705;BME280;4389;41.932;25.904;2022-12-24T08:22:14;100562.41;;;3.76;100.00
8705;BME280;4389;41.932;25.904;2022-12-24T08:24:42;100550.56;;;3.98;100.00
8705;BME280;4389;41.932;25.904;2022-12-24T08:27:09;100548.22;;;3.94;100.00
8705;BME280;4389;41.932;25.904;2022-12-24T08:29:36;100559.72;;;3.91;99.80
8705;BME280;4389;41.932;25.904;2022-12-24T08:32:03;100563.09;;;4.07;100.00
8705;BME280;4389;41.932;25.904;2022-12-24T08:34:30;100565.63;;;4.09;99.61
8705;BME280;4389;41.932;25.904;2022-12-24T08:36:57;100557.69;;;4.10;98.99
8705;BME280;4389;41.932;25.904;2022-12-24T08:39:24;100557.13;;;4.05;98.86
8705;BME280;4389;41.932;25.904;2022-12-24T08:41:52;100554.94;;;4.12;98.53
8705;BME280;4389;41.932;25.904;2022-12-24T08:44:19;100567.19;;;3.83;98.06
8705;BME280;4389;41.932;25.904;2022-12-24T08:46:46;100559.72;;;3.77;100.00
8705;BME280;4389;41.932;25.904;2022-12-24T08:49:13;100558.22;;;4.01;100.00
8705;BME280;4389;41.932;25.904;2022-12-24T08:51:40;100564.97;;;4.19;100.00
8705;BME280;4389;41.932;25.904;2022-12-24T08:54:07;100564.00;;;4.48;98.45
8705;BME280;4389;41.932;25.904;2022-12-24T08:56:34;100567.56;;;4.47;97.41
8705;BME280;4389;41.932;25.904;2022-12-24T08:59:02;100554.63;;;4.58;97.12
8705;BME280;4389;41.932;25.904;2022-12-24T09:01:29;100555.78;;;4.80;98.01
8705;BME280;4389;41.932;25.904;2022-12-24T09:03:56;100558.97;;;4.85;96.94
8705;BME280;4389;41.932;25.904;2022-12-24T09:06:23;100546.25;;;5.06;96.67
8705;BME280;4389;41.932;25.904;2022-12-24T09:08:49;100548.81;;;5.20;95.17
8705;BME280;4389;41.932;25.904;2022-12-24T09:11:17;100542.47;;;4.97;94.73
8705;BME280;4389;41.932;25.904;2022-12-24T09:13:45;100532.13;;;4.82;95.77
8705;BME280;4389;41.932;25.904;2022-12-24T09:16:13;100540.97;;;4.67;97.47
8705;BME280;4389;41.932;25.904;2022-12-24T09:18:40;100533.50;;;4.61;97.25
8705;BME280;4389;41.932;25.904;2022-12-24T09:21:09;100529.97;;;4.74;98.10
8705;BME280;4389;41.932;25.904;2022-12-24T09:23:39;100528.13;;;4.76;97.42
8705;BME280;4389;41.932;25.904;2022-12-24T09:26:07;100538.69;;;5.01;97.36
8705;BME280;4389;41.932;25.904;2022-12-24T09:28:34;100530.19;;;4.98;96.78
8705;BME280;4389;41.932;25.904;2022-12-24T09:31:02;100524.22;;;4.96;97.96
8705;BME280;4389;41.932;25.904;2022-12-24T09:33:33;100519.09;;;5.07;97.57
8705;BME280;4389;41.932;25.904;2022-12-24T09:36:00;100508.69;;;5.32;96.66
8705;BME280;4389;41.932;25.904;2022-12-24T09:38:27;100512.75;;;5.36;95.69
8705;BME280;4389;41.932;25.904;2022-12-24T09:40:55;100510.22;;;5.22;96.99
8705;BME280;4389;41.932;25.904;2022-12-24T09:43:25;100511.69;;;5.26;96.79
8705;BME280;4389;41.932;25.904;2022-12-24T09:46:03;100505.03;;;5.47;96.37
8705;BME280;4389;41.932;25.904;2022-12-24T09:48:36;100520.13;;;5.56;96.25
8705;BME280;4389;41.932;25.904;2022-12-24T09:51:07;100509.84;;;5.53;96.54
8705;BME280;4389;41.932;25.904;2022-12-24T09:53:37;100517.81;;;5.39;96.43
8705;BME280;4389;41.932;25.904;2022-12-24T09:56:11;100515.44;;;5.22;96.79
8705;BME280;4389;41.932;25.904;2022-12-24T09:58:42;100514.09;;;5.29;97.46
8705;BME280;4389;41.932;25.904;2022-12-24T10:01:12;100515.44;;;5.22;96.96
8705;BME280;4389;41.932;25.904;2022-12-24T10:03:41;100513.03;;;5.06;98.37
8705;BME280;4389;41.932;25.904;2022-12-24T10:06:13;100508.75;;;5.18;98.99
8705;BME280;4389;41.932;25.904;2022-12-24T10:08:52;100507.50;;;5.36;99.71
8705;BME280;4389;41.932;25.904;2022-12-24T10:11:28;100517.41;;;5.45;99.15
8705;BME280;4389;41.932;25.904;2022-12-24T10:14:12;100511.75;;;5.51;97.13
8705;BME280;4389;41.932;25.904;2022-12-24T10:16:47;100508.59;;;5.58;98.21
8705;BME280;4389;41.932;25.904;2022-12-24T10:19:30;100507.44;;;5.75;97.84
8705;BME280;4389;41.932;25.904;2022-12-24T10:22:05;100510.97;;;5.88;97.41
8705;BME280;4389;41.932;25.904;2022-12-24T10:24:39;100493.59;;;5.73;97.58
8705;BME280;4389;41.932;25.904;2022-12-24T10:27:11;100490.25;;;5.96;97.82
8705;BME280;4389;41.932;25.904;2022-12-24T10:29:41;100492.25;;;5.92;97.77
8705;BME280;4389;41.932;25.904;2022-12-24T10:32:20;100494.16;;;5.90;97.69
8705;BME280;4389;41.932;25.904;2022-12-24T10:34:52;100493.06;;;5.93;97.26
8705;BME280;4389;41.932;25.904;2022-12-24T10:37:23;100493.69;;;5.71;97.22
8705;BME280;4389;41.932;25.904;2022-12-24T10:39:50;100491.31;;;5.68;98.81
8705;BME280;4389;41.932;25.904;2022-12-24T10:42:18;100493.59;;;5.73;99.06
8705;BME280;4389;41.932;25.904;2022-12-24T10:44:54;100487.19;;;5.89;98.87
8705;BME280;4389;41.932;25.904;2022-12-24T10:47:23;100475.16;;;5.87;98.00
8705;BME280;4389;41.932;25.904;2022-12-24T10:49:56;100476.56;;;6.03;99.09
8705;BME280;4389;41.932;25.904;2022-12-24T10:52:31;100473.78;;;5.94;99.27
8705;BME280;4389;41.932;25.904;2022-12-24T10:55:11;100482.25;;;6.10;99.14
8705;BME280;4389;41.932;25.904;2022-12-24T10:57:57;100484.03;;;6.22;98.69
8705;BME280;4389;41.932;25.904;2022-12-24T11:00:25;100471.97;;;6.43;98.50
8705;BME280;4389;41.932;25.904;2022-12-24T11:03:05;100472.03;;;6.54;97.86
8705;BME280;4389;41.932;25.904;2022-12-24T11:05:35;100467.75;;;6.53;97.58
8705;BME280;4389;41.932;25.904;2022-12-24T11:08:05;100474.78;;;6.76;97.22
8705;BME280;4389;41.932;25.904;2022-12-24T11:10:34;100473.00;;;6.76;96.38
8705;BME280;4389;41.932;25.904;2022-12-24T11:13:02;100468.81;;;6.74;95.32
8705;BME280;4389;41.932;25.904;2022-12-24T11:15:31;100459.00;;;6.52;96.40
8705;BME280;4389;41.932;25.904;2022-12-24T11:18:00;100465.41;;;6.25;97.83
8705;BME280;4389;41.932;25.904;2022-12-24T11:20:31;100466.13;;;6.27;98.09
8705;BME280;4389;41.932;25.904;2022-12-24T11:23:00;100459.44;;;6.23;98.56
8705;BME280;4389;41.932;25.904;2022-12-24T11:25:29;100461.41;;;6.32;98.80
8705;BME280;4389;41.932;25.904;2022-12-24T11:28:10;100463.78;;;6.47;99.19
8705;BME280;4389;41.932;25.904;2022-12-24T11:30:38;100456.00;;;6.46;98.84
8705;BME280;4389;41.932;25.904;2022-12-24T11:33:18;100463.75;;;6.71;98.36
8705;BME280;4389;41.932;25.904;2022-12-24T11:35:47;100465.94;;;6.77;97.42
8705;BME280;4389;41.932;25.904;2022-12-24T11:38:22;100455.56;;;6.75;98.12
8705;BME280;4389;41.932;25.904;2022-12-24T11:40:57;100462.16;;;6.81;97.73
8705;BME280;4389;41.932;25.904;2022-12-24T11:43:25;100454.09;;;6.95;97.90
8705;BME280;4389;41.932;25.904;2022-12-24T11:46:36;100455.75;;;6.96;97.33
8705;BME280;4389;41.932;25.904;2022-12-24T11:49:23;100454.38;;;7.14;96.15
8705;BME280;4389;41.932;25.904;2022-12-24T11:52:13;100453.16;;;7.41;96.17
8705;BME280;4389;41.932;25.904;2022-12-24T11:54:49;100459.00;;;7.45;95.51
8705;BME280;4389;41.932;25.904;2022-12-24T11:57:19;100453.03;;;7.54;95.79
8705;BME280;4389;41.932;25.904;2022-12-24T11:59:50;100457.84;;;7.71;94.97
8705;BME280;4389;41.932;25.904;2022-12-24T12:02:21;100454.72;;;7.77;94.97
8705;BME280;4389;41.932;25.904;2022-12-24T12:04:51;100452.94;;;7.88;95.10
8705;BME280;4389;41.932;25.904;2022-12-24T12:07:21;100446.25;;;8.06;94.22
8705;BME280;4389;41.932;25.904;2022-12-24T12:09:55;100443.13;;;8.23;93.47
8705;BME280;4389;41.932;25.904;2022-12-24T12:12:25;100428.28;;;8.33;93.00
8705;BME280;4389;41.932;25.904;2022-12-24T12:14:54;100430.22;;;8.63;92.34
8705;BME280;4389;41.932;25.904;2022-12-24T12:17:28;100424.34;;;8.90;92.10
8705;BME280;4389;41.932;25.904;2022-12-24T12:20:00;100421.91;;;8.78;90.92
8705;BME280;4389;41.932;25.904;2022-12-24T12:22:33;100432.91;;;8.83;90.61
8705;BME280;4389;41.932;25.904;2022-12-24T12:25:17;100435.75;;;8.60;91.69
8705;BME280;4389;41.932;25.904;2022-12-24T12:27:49;100428.31;;;8.65;92.14
8705;BME280;4389;41.932;25.904;2022-12-24T12:30:19;100429.97;;;8.66;91.47
8705;BME280;4389;41.932;25.904;2022-12-24T12:32:51;100422.53;;;8.71;91.82
8705;BME280;4389;41.932;25.904;2022-12-24T12:35:24;100421.69;;;8.70;91.80
8705;BME280;4389;41.932;25.904;2022-12-24T12:37:55;100432.41;;;8.58;92.42
8705;BME280;4389;41.932;25.904;2022-12-24T12:40:34;100439.09;;;8.62;92.28
8705;BME280;4389;41.932;25.904;2022-12-24T12:43:12;100426.34;;;8.78;92.04
8705;BME280;4389;41.932;25.904;2022-12-24T12:45:46;100422.78;;;8.68;91.55
8705;BME280;4389;41.932;25.904;2022-12-24T12:51:16;100415.81;;;8.67;92.40
8705;BME280;4389;41.932;25.904;2022-12-24T12:53:58;100407.16;;;8.76;91.62
8705;BME280;4389;41.932;25.904;2022-12-24T12:56:33;100413.66;;;8.72;92.81
8705;BME280;4389;41.932;25.904;2022-12-24T12:59:03;100409.78;;;8.76;92.58
8705;BME280;4389;41.932;25.904;2022-12-24T13:01:40;100401.22;;;8.63;93.43
8705;BME280;4389;41.932;25.904;2022-12-24T13:07:50;100421.13;;;8.56;94.12
8705;BME280;4389;41.932;25.904;2022-12-24T13:10:48;100417.75;;;8.65;93.56
8705;BME280;4389;41.932;25.904;2022-12-24T13:13:45;100423.25;;;8.62;93.94
8705;BME280;4389;41.932;25.904;2022-12-24T13:19:37;100411.13;;;8.39;94.98
8705;BME280;4389;41.932;25.904;2022-12-24T13:22:13;100410.44;;;8.26;95.06
8705;BME280;4389;41.932;25.904;2022-12-24T13:24:46;100401.31;;;8.19;95.67
8705;BME280;4389;41.932;25.904;2022-12-24T13:27:16;100403.38;;;8.04;96.25
8705;BME280;4389;41.932;25.904;2022-12-24T13:29:51;100423.59;;;8.04;96.54
8705;BME280;4389;41.932;25.904;2022-12-24T13:32:46;100422.66;;;8.05;97.04